sensor_id;sensor_type;location;lat;lon;timestamp;P1;durP1;ratioP1;P2;durP2;ratioP2
62844;SDS011;48929;47.910;20.390;2023-04-06T00:01:57;12.05;;;6.18;;
62844;SDS011;48929;47.910;20.390;2023-04-06T00:04:27;15.48;;;8.05;;
62844;SDS011;48929;47.910;20.390;2023-04-06T00:06:56;13.23;;;7.30;;
62844;SDS011;48929;47.910;20.390;2023-04-06T00:09:25;13.73;;;6.82;;
62844;SDS011;48929;47.910;20.390;2023-04-06T00:11:55;14.98;;;5.88;;
62844;SDS011;48929;47.910;20.390;2023-04-06T00:14:25;9.80;;;5.40;;
62844;SDS011;48929;47.910;20.390;2023-04-06T00:16:55;9.82;;;5.28;;
62844;SDS011;48929;47.910;20.390;2023-04-06T00:19:24;9.65;;;5.55;;
62844;SDS011;48929;47.910;20.390;2023-04-06T00:21:54;11.32;;;5.90;;
62844;SDS011;48929;47.910;20.390;2023-04-06T00:24:23;11.10;;;6.25;;
62844;SDS011;48929;47.910;20.390;2023-04-06T00:26:53;13.32;;;6.75;;
62844;SDS011;48929;47.910;20.390;2023-04-06T00:29:22;12.57;;;5.75;;
62844;SDS011;48929;47.910;20.390;2023-04-06T00:31:51;11.85;;;5.53;;
62844;SDS011;48929;47.910;20.390;2023-04-06T00:34:20;13.73;;;6.47;;
62844;SDS011;48929;47.910;20.390;2023-04-06T00:36:49;10.65;;;5.97;;
62844;SDS011;48929;47.910;20.390;2023-04-06T00:39:20;10.45;;;5.70;;
62844;SDS011;48929;47.910;20.390;2023-04-06T00:41:51;11.90;;;5.63;;
62844;SDS011;48929;47.910;20.390;2023-04-06T00:44:22;12.57;;;5.80;;
62844;SDS011;48929;47.910;20.390;2023-04-06T00:46:51;10.82;;;5.75;;
62844;SDS011;48929;47.910;20.390;2023-04-06T00:49:20;11.73;;;6.28;;
62844;SDS011;48929;47.910;20.390;2023-04-06T00:51:50;11.43;;;6.10;;
62844;SDS011;48929;47.910;20.390;2023-04-06T00:54:20;10.23;;;6.22;;
62844;SDS011;48929;47.910;20.390;2023-04-06T00:56:49;11.23;;;5.85;;
62844;SDS011;48929;47.910;20.390;2023-04-06T00:59:20;11.27;;;5.78;;
62844;SDS011;48929;47.910;20.390;2023-04-06T01:01:49;10.65;;;5.43;;
62844;SDS011;48929;47.910;20.390;2023-04-06T01:04:18;11.25;;;5.60;;
62844;SDS011;48929;47.910;20.390;2023-04-06T01:06:49;9.98;;;5.80;;
62844;SDS011;48929;47.910;20.390;2023-04-06T01:09:20;10.35;;;5.78;;
62844;SDS011;48929;47.910;20.390;2023-04-06T01:11:49;9.27;;;5.85;;
62844;SDS011;48929;47.910;20.390;2023-04-06T01:14:18;11.23;;;6.60;;
62844;SDS011;48929;47.910;20.390;2023-04-06T01:16:47;14.52;;;6.82;;
62844;SDS011;48929;47.910;20.390;2023-04-06T01:19:15;9.93;;;5.80;;
62844;SDS011;48929;47.910;20.390;2023-04-06T01:21:44;11.68;;;5.55;;
62844;SDS011;48929;47.910;20.390;2023-04-06T01:24:15;10.40;;;5.68;;
62844;SDS011;48929;47.910;20.390;2023-04-06T01:26:45;11.98;;;5.90;;
62844;SDS011;48929;47.910;20.390;2023-04-06T01:29:14;12.07;;;5.88;;
62844;SDS011;48929;47.910;20.390;2023-04-06T01:31:43;11.52;;;6.15;;
62844;SDS011;48929;47.910;20.390;2023-04-06T01:34:12;9.55;;;5.50;;
62844;SDS011;48929;47.910;20.390;2023-04-06T01:36:40;10.60;;;6.18;;
62844;SDS011;48929;47.910;20.390;2023-04-06T01:39:09;10.63;;;6.22;;
62844;SDS011;48929;47.910;20.390;2023-04-06T01:41:59;12.73;;;6.13;;
62844;SDS011;48929;47.910;20.390;2023-04-06T01:44:28;10.38;;;6.07;;
62844;SDS011;48929;47.910;20.390;2023-04-06T01:46:57;10.23;;;5.32;;
62844;SDS011;48929;47.910;20.390;2023-04-06T01:49:28;8.85;;;6.03;;
62844;SDS011;48929;47.910;20.390;2023-04-06T01:51:59;10.95;;;6.05;;
62844;SDS011;48929;47.910;20.390;2023-04-06T01:54:29;12.82;;;6.15;;
62844;SDS011;48929;47.910;20.390;2023-04-06T01:57:00;16.33;;;6.32;;
62844;SDS011;48929;47.910;20.390;2023-04-06T01:59:29;11.05;;;6.38;;
62844;SDS011;48929;47.910;20.390;2023-04-06T02:01:59;10.93;;;6.40;;
62844;SDS011;48929;47.910;20.390;2023-04-06T02:04:28;13.02;;;6.40;;
62844;SDS011;48929;47.910;20.390;2023-04-06T02:06:57;10.95;;;6.05;;
62844;SDS011;48929;47.910;20.390;2023-04-06T02:09:26;11.57;;;6.30;;
62844;SDS011;48929;47.910;20.390;2023-04-06T02:11:58;11.50;;;5.63;;
62844;SDS011;48929;47.910;20.390;2023-04-06T02:14:29;12.20;;;6.28;;
62844;SDS011;48929;47.910;20.390;2023-04-06T02:16:58;11.30;;;5.88;;
62844;SDS011;48929;47.910;20.390;2023-04-06T02:19:28;11.02;;;6.15;;
62844;SDS011;48929;47.910;20.390;2023-04-06T02:21:57;9.27;;;5.50;;
62844;SDS011;48929;47.910;20.390;2023-04-06T02:24:28;15.15;;;5.38;;
62844;SDS011;48929;47.910;20.390;2023-04-06T02:27:05;9.02;;;5.70;;
62844;SDS011;48929;47.910;20.390;2023-04-06T02:29:35;13.63;;;6.70;;
62844;SDS011;48929;47.910;20.390;2023-04-06T02:32:04;13.70;;;6.63;;
62844;SDS011;48929;47.910;20.390;2023-04-06T02:34:33;11.10;;;5.60;;
62844;SDS011;48929;47.910;20.390;2023-04-06T02:37:02;11.85;;;6.00;;
62844;SDS011;48929;47.910;20.390;2023-04-06T02:39:31;10.50;;;6.07;;
62844;SDS011;48929;47.910;20.390;2023-04-06T02:42:04;14.15;;;6.35;;
62844;SDS011;48929;47.910;20.390;2023-04-06T02:44:32;13.02;;;6.40;;
62844;SDS011;48929;47.910;20.390;2023-04-06T02:47:03;13.35;;;5.78;;
62844;SDS011;48929;47.910;20.390;2023-04-06T02:49:32;11.45;;;6.65;;
62844;SDS011;48929;47.910;20.390;2023-04-06T02:52:01;13.50;;;6.90;;
62844;SDS011;48929;47.910;20.390;2023-04-06T02:54:32;13.27;;;7.15;;
62844;SDS011;48929;47.910;20.390;2023-04-06T02:57:04;13.45;;;7.13;;
62844;SDS011;48929;47.910;20.390;2023-04-06T02:59:35;14.40;;;7.10;;
62844;SDS011;48929;47.910;20.390;2023-04-06T03:02:06;12.55;;;6.57;;
62844;SDS011;48929;47.910;20.390;2023-04-06T03:04:41;16.15;;;6.63;;
62844;SDS011;48929;47.910;20.390;2023-04-06T03:07:10;12.18;;;5.97;;
62844;SDS011;48929;47.910;20.390;2023-04-06T03:09:39;11.40;;;6.38;;
62844;SDS011;48929;47.910;20.390;2023-04-06T03:12:09;11.88;;;5.90;;
62844;SDS011;48929;47.910;20.390;2023-04-06T03:14:40;9.25;;;5.85;;
62844;SDS011;48929;47.910;20.390;2023-04-06T03:17:11;14.25;;;6.50;;
62844;SDS011;48929;47.910;20.390;2023-04-06T03:19:40;10.80;;;6.20;;
62844;SDS011;48929;47.910;20.390;2023-04-06T03:22:08;10.45;;;6.20;;
62844;SDS011;48929;47.910;20.390;2023-04-06T03:24:37;12.38;;;6.60;;
62844;SDS011;48929;47.910;20.390;2023-04-06T03:27:07;11.77;;;6.43;;
62844;SDS011;48929;47.910;20.390;2023-04-06T03:29:39;13.32;;;7.00;;
62844;SDS011;48929;47.910;20.390;2023-04-06T03:32:08;16.17;;;7.45;;
62844;SDS011;48929;47.910;20.390;2023-04-06T03:34:39;11.43;;;6.35;;
62844;SDS011;48929;47.910;20.390;2023-04-06T03:37:07;11.32;;;6.63;;
62844;SDS011;48929;47.910;20.390;2023-04-06T03:39:36;13.75;;;6.63;;
62844;SDS011;48929;47.910;20.390;2023-04-06T03:42:06;11.27;;;5.97;;
62844;SDS011;48929;47.910;20.390;2023-04-06T03:44:35;12.70;;;7.13;;
62844;SDS011;48929;47.910;20.390;2023-04-06T03:47:04;11.73;;;6.50;;
62844;SDS011;48929;47.910;20.390;2023-04-06T03:49:33;11.02;;;6.00;;
62844;SDS011;48929;47.910;20.390;2023-04-06T03:52:06;11.52;;;7.07;;
62844;SDS011;48929;47.910;20.390;2023-04-06T03:54:35;15.48;;;6.65;;
62844;SDS011;48929;47.910;20.390;2023-04-06T03:57:04;14.75;;;6.85;;
62844;SDS011;48929;47.910;20.390;2023-04-06T03:59:33;13.40;;;7.03;;
62844;SDS011;48929;47.910;20.390;2023-04-06T04:02:02;17.63;;;7.38;;
62844;SDS011;48929;47.910;20.390;2023-04-06T04:04:31;13.75;;;7.43;;
62844;SDS011;48929;47.910;20.390;2023-04-06T04:07:00;12.15;;;6.82;;
62844;SDS011;48929;47.910;20.390;2023-04-06T04:09:34;13.80;;;7.70;;
62844;SDS011;48929;47.910;20.390;2023-04-06T04:12:03;19.83;;;7.32;;
62844;SDS011;48929;47.910;20.390;2023-04-06T04:14:32;16.13;;;7.10;;
62844;SDS011;48929;47.910;20.390;2023-04-06T04:17:01;17.00;;;7.25;;
62844;SDS011;48929;47.910;20.390;2023-04-06T04:19:30;10.90;;;6.35;;
62844;SDS011;48929;47.910;20.390;2023-04-06T04:21:59;13.27;;;6.95;;
62844;SDS011;48929;47.910;20.390;2023-04-06T04:24:31;13.00;;;6.57;;
62844;SDS011;48929;47.910;20.390;2023-04-06T04:27:01;17.35;;;7.55;;
62844;SDS011;48929;47.910;20.390;2023-04-06T04:29:31;17.67;;;7.70;;
62844;SDS011;48929;47.910;20.390;2023-04-06T04:32:00;15.35;;;7.13;;
62844;SDS011;48929;47.910;20.390;2023-04-06T04:34:29;14.30;;;6.72;;
62844;SDS011;48929;47.910;20.390;2023-04-06T04:37:00;17.48;;;8.02;;
62844;SDS011;48929;47.910;20.390;2023-04-06T04:39:29;13.60;;;7.07;;
62844;SDS011;48929;47.910;20.390;2023-04-06T04:41:59;16.23;;;6.70;;
62844;SDS011;48929;47.910;20.390;2023-04-06T04:44:29;16.27;;;7.50;;
62844;SDS011;48929;47.910;20.390;2023-04-06T04:46:58;18.88;;;8.05;;
62844;SDS011;48929;47.910;20.390;2023-04-06T04:49:28;15.07;;;7.20;;
62844;SDS011;48929;47.910;20.390;2023-04-06T04:51:57;16.88;;;7.40;;
62844;SDS011;48929;47.910;20.390;2023-04-06T04:54:26;15.05;;;7.07;;
62844;SDS011;48929;47.910;20.390;2023-04-06T04:56:55;14.98;;;7.88;;
62844;SDS011;48929;47.910;20.390;2023-04-06T04:59:24;11.32;;;7.07;;
62844;SDS011;48929;47.910;20.390;2023-04-06T05:01:55;13.27;;;7.38;;
62844;SDS011;48929;47.910;20.390;2023-04-06T05:04:24;14.68;;;7.63;;
62844;SDS011;48929;47.910;20.390;2023-04-06T05:07:02;19.27;;;8.95;;
62844;SDS011;48929;47.910;20.390;2023-04-06T05:09:32;15.80;;;8.30;;
62844;SDS011;48929;47.910;20.390;2023-04-06T05:12:01;14.50;;;7.85;;
62844;SDS011;48929;47.910;20.390;2023-04-06T05:14:32;17.38;;;8.38;;
62844;SDS011;48929;47.910;20.390;2023-04-06T05:17:03;16.30;;;8.23;;
62844;SDS011;48929;47.910;20.390;2023-04-06T05:19:33;13.95;;;8.25;;
62844;SDS011;48929;47.910;20.390;2023-04-06T05:22:02;17.02;;;9.40;;
62844;SDS011;48929;47.910;20.390;2023-04-06T05:24:31;17.55;;;8.32;;
62844;SDS011;48929;47.910;20.390;2023-04-06T05:27:02;15.80;;;8.65;;
62844;SDS011;48929;47.910;20.390;2023-04-06T05:29:33;15.90;;;8.13;;
62844;SDS011;48929;47.910;20.390;2023-04-06T05:32:03;14.07;;;8.43;;
62844;SDS011;48929;47.910;20.390;2023-04-06T05:34:32;13.80;;;7.65;;
62844;SDS011;48929;47.910;20.390;2023-04-06T05:37:01;15.07;;;8.27;;
62844;SDS011;48929;47.910;20.390;2023-04-06T05:39:33;17.00;;;8.25;;
62844;SDS011;48929;47.910;20.390;2023-04-06T05:42:03;18.33;;;8.93;;
62844;SDS011;48929;47.910;20.390;2023-04-06T05:44:33;15.10;;;8.00;;
62844;SDS011;48929;47.910;20.390;2023-04-06T05:47:05;21.58;;;9.10;;
62844;SDS011;48929;47.910;20.390;2023-04-06T05:49:33;18.52;;;9.00;;
62844;SDS011;48929;47.910;20.390;2023-04-06T05:52:02;21.25;;;10.05;;
62844;SDS011;48929;47.910;20.390;2023-04-06T05:54:31;18.60;;;9.70;;
62844;SDS011;48929;47.910;20.390;2023-04-06T05:57:02;19.27;;;9.88;;
62844;SDS011;48929;47.910;20.390;2023-04-06T05:59:31;20.10;;;9.50;;
62844;SDS011;48929;47.910;20.390;2023-04-06T06:02:00;29.02;;;10.73;;
62844;SDS011;48929;47.910;20.390;2023-04-06T06:04:30;16.80;;;9.70;;
62844;SDS011;48929;47.910;20.390;2023-04-06T06:06:59;18.67;;;9.85;;
62844;SDS011;48929;47.910;20.390;2023-04-06T06:09:30;20.75;;;9.48;;
62844;SDS011;48929;47.910;20.390;2023-04-06T06:11:59;17.08;;;9.00;;
62844;SDS011;48929;47.910;20.390;2023-04-06T06:14:28;17.30;;;8.82;;
62844;SDS011;48929;47.910;20.390;2023-04-06T06:16:57;14.95;;;8.65;;
62844;SDS011;48929;47.910;20.390;2023-04-06T06:19:26;13.27;;;6.50;;
62844;SDS011;48929;47.910;20.390;2023-04-06T06:21:58;15.82;;;7.65;;
62844;SDS011;48929;47.910;20.390;2023-04-06T06:24:29;17.05;;;9.88;;
62844;SDS011;48929;47.910;20.390;2023-04-06T06:27:02;19.50;;;8.68;;
62844;SDS011;48929;47.910;20.390;2023-04-06T06:29:34;15.50;;;8.07;;
62844;SDS011;48929;47.910;20.390;2023-04-06T06:32:32;15.93;;;6.63;;
62844;SDS011;48929;47.910;20.390;2023-04-06T06:35:01;14.38;;;6.97;;
62844;SDS011;48929;47.910;20.390;2023-04-06T06:37:32;15.80;;;8.88;;
62844;SDS011;48929;47.910;20.390;2023-04-06T06:40:03;14.60;;;7.38;;
62844;SDS011;48929;47.910;20.390;2023-04-06T06:42:34;13.02;;;7.53;;
62844;SDS011;48929;47.910;20.390;2023-04-06T06:45:05;12.43;;;7.70;;
62844;SDS011;48929;47.910;20.390;2023-04-06T06:47:36;13.98;;;7.72;;
62844;SDS011;48929;47.910;20.390;2023-04-06T06:50:05;14.07;;;7.40;;
62844;SDS011;48929;47.910;20.390;2023-04-06T06:52:36;11.18;;;6.70;;
62844;SDS011;48929;47.910;20.390;2023-04-06T06:55:06;12.90;;;6.97;;
62844;SDS011;48929;47.910;20.390;2023-04-06T06:57:36;12.50;;;7.10;;
62844;SDS011;48929;47.910;20.390;2023-04-06T07:00:05;14.32;;;7.93;;
62844;SDS011;48929;47.910;20.390;2023-04-06T07:02:39;12.57;;;7.03;;
62844;SDS011;48929;47.910;20.390;2023-04-06T07:05:08;10.57;;;6.40;;
62844;SDS011;48929;47.910;20.390;2023-04-06T07:07:54;11.07;;;6.88;;
62844;SDS011;48929;47.910;20.390;2023-04-06T07:10:27;10.15;;;5.97;;
62844;SDS011;48929;47.910;20.390;2023-04-06T07:12:59;12.40;;;6.15;;
62844;SDS011;48929;47.910;20.390;2023-04-06T07:15:30;13.70;;;6.63;;
62844;SDS011;48929;47.910;20.390;2023-04-06T07:18:02;16.27;;;7.15;;
62844;SDS011;48929;47.910;20.390;2023-04-06T07:20:32;13.05;;;6.70;;
62844;SDS011;48929;47.910;20.390;2023-04-06T07:23:02;12.30;;;7.00;;
62844;SDS011;48929;47.910;20.390;2023-04-06T07:25:32;10.55;;;6.05;;
62844;SDS011;48929;47.910;20.390;2023-04-06T07:28:01;12.23;;;6.47;;
62844;SDS011;48929;47.910;20.390;2023-04-06T07:30:30;12.25;;;6.43;;
62844;SDS011;48929;47.910;20.390;2023-04-06T07:33:03;13.77;;;7.63;;
62844;SDS011;48929;47.910;20.390;2023-04-06T07:35:35;11.32;;;6.70;;
62844;SDS011;48929;47.910;20.390;2023-04-06T07:38:06;9.00;;;5.85;;
62844;SDS011;48929;47.910;20.390;2023-04-06T07:40:35;14.15;;;7.22;;
62844;SDS011;48929;47.910;20.390;2023-04-06T07:43:04;15.40;;;6.38;;
62844;SDS011;48929;47.910;20.390;2023-04-06T07:45:33;11.88;;;6.30;;
62844;SDS011;48929;47.910;20.390;2023-04-06T07:48:02;12.40;;;6.38;;
62844;SDS011;48929;47.910;20.390;2023-04-06T07:50:34;12.73;;;7.40;;
62844;SDS011;48929;47.910;20.390;2023-04-06T07:53:03;10.35;;;6.25;;
62844;SDS011;48929;47.910;20.390;2023-04-06T07:55:33;11.82;;;6.75;;
62844;SDS011;48929;47.910;20.390;2023-04-06T07:58:02;11.38;;;6.25;;
62844;SDS011;48929;47.910;20.390;2023-04-06T08:00:32;11.20;;;6.20;;
62844;SDS011;48929;47.910;20.390;2023-04-06T08:03:01;10.57;;;6.30;;
62844;SDS011;48929;47.910;20.390;2023-04-06T08:05:33;10.55;;;6.45;;
62844;SDS011;48929;47.910;20.390;2023-04-06T08:08:17;10.82;;;6.32;;
62844;SDS011;48929;47.910;20.390;2023-04-06T08:10:49;10.50;;;6.10;;
62844;SDS011;48929;47.910;20.390;2023-04-06T08:13:18;10.30;;;5.93;;
62844;SDS011;48929;47.910;20.390;2023-04-06T08:15:47;9.77;;;5.78;;
62844;SDS011;48929;47.910;20.390;2023-04-06T08:18:18;9.68;;;5.90;;
62844;SDS011;48929;47.910;20.390;2023-04-06T08:20:46;11.10;;;6.80;;
62844;SDS011;48929;47.910;20.390;2023-04-06T08:23:16;12.43;;;6.18;;
62844;SDS011;48929;47.910;20.390;2023-04-06T08:25:45;11.02;;;6.15;;
62844;SDS011;48929;47.910;20.390;2023-04-06T08:28:16;13.73;;;7.22;;
62844;SDS011;48929;47.910;20.390;2023-04-06T08:30:45;10.98;;;6.70;;
62844;SDS011;48929;47.910;20.390;2023-04-06T08:33:14;13.23;;;6.78;;
62844;SDS011;48929;47.910;20.390;2023-04-06T08:35:43;10.05;;;6.25;;
62844;SDS011;48929;47.910;20.390;2023-04-06T08:38:12;15.60;;;6.72;;
62844;SDS011;48929;47.910;20.390;2023-04-06T08:40:41;13.20;;;6.85;;
62844;SDS011;48929;47.910;20.390;2023-04-06T08:43:12;11.07;;;7.15;;
62844;SDS011;48929;47.910;20.390;2023-04-06T08:45:43;11.73;;;7.00;;
62844;SDS011;48929;47.910;20.390;2023-04-06T08:48:12;11.43;;;7.00;;
62844;SDS011;48929;47.910;20.390;2023-04-06T08:50:43;13.52;;;7.07;;
62844;SDS011;48929;47.910;20.390;2023-04-06T08:53:12;13.65;;;7.40;;
62844;SDS011;48929;47.910;20.390;2023-04-06T08:55:42;13.68;;;7.10;;
62844;SDS011;48929;47.910;20.390;2023-04-06T08:58:15;14.45;;;7.22;;
62844;SDS011;48929;47.910;20.390;2023-04-06T09:01:05;14.05;;;7.55;;
62844;SDS011;48929;47.910;20.390;2023-04-06T09:03:39;13.45;;;7.82;;
62844;SDS011;48929;47.910;20.390;2023-04-06T09:06:11;15.60;;;8.05;;
62844;SDS011;48929;47.910;20.390;2023-04-06T09:08:42;15.60;;;8.48;;
62844;SDS011;48929;47.910;20.390;2023-04-06T09:11:11;14.93;;;8.05;;
62844;SDS011;48929;47.910;20.390;2023-04-06T09:13:47;15.32;;;8.57;;
62844;SDS011;48929;47.910;20.390;2023-04-06T09:16:18;18.90;;;8.52;;
62844;SDS011;48929;47.910;20.390;2023-04-06T09:18:48;16.15;;;8.85;;
62844;SDS011;48929;47.910;20.390;2023-04-06T09:21:18;16.17;;;8.02;;
62844;SDS011;48929;47.910;20.390;2023-04-06T09:23:58;15.15;;;8.60;;
62844;SDS011;48929;47.910;20.390;2023-04-06T09:26:28;14.43;;;8.90;;
62844;SDS011;48929;47.910;20.390;2023-04-06T09:29:01;17.00;;;8.77;;
62844;SDS011;48929;47.910;20.390;2023-04-06T09:31:31;15.70;;;8.80;;
62844;SDS011;48929;47.910;20.390;2023-04-06T09:34:03;16.33;;;8.77;;
62844;SDS011;48929;47.910;20.390;2023-04-06T09:36:33;15.10;;;8.55;;
62844;SDS011;48929;47.910;20.390;2023-04-06T09:39:02;15.55;;;8.40;;
62844;SDS011;48929;47.910;20.390;2023-04-06T09:41:33;17.35;;;10.02;;
62844;SDS011;48929;47.910;20.390;2023-04-06T09:44:03;15.55;;;8.60;;
62844;SDS011;48929;47.910;20.390;2023-04-06T09:46:35;17.05;;;9.48;;
62844;SDS011;48929;47.910;20.390;2023-04-06T09:49:24;18.13;;;9.48;;
62844;SDS011;48929;47.910;20.390;2023-04-06T09:51:55;15.63;;;8.95;;
62844;SDS011;48929;47.910;20.390;2023-04-06T09:54:28;18.85;;;9.32;;
62844;SDS011;48929;47.910;20.390;2023-04-06T09:56:59;14.05;;;8.18;;
62844;SDS011;48929;47.910;20.390;2023-04-06T09:59:36;18.02;;;9.55;;
62844;SDS011;48929;47.910;20.390;2023-04-06T10:02:15;15.85;;;9.85;;
62844;SDS011;48929;47.910;20.390;2023-04-06T10:04:49;11.60;;;7.28;;
62844;SDS011;48929;47.910;20.390;2023-04-06T10:07:24;14.57;;;8.75;;
62844;SDS011;48929;47.910;20.390;2023-04-06T10:09:54;17.50;;;9.85;;
62844;SDS011;48929;47.910;20.390;2023-04-06T10:12:24;15.90;;;9.45;;
62844;SDS011;48929;47.910;20.390;2023-04-06T10:14:52;17.85;;;10.45;;
62844;SDS011;48929;47.910;20.390;2023-04-06T10:17:26;16.35;;;9.07;;
62844;SDS011;48929;47.910;20.390;2023-04-06T10:19:59;18.30;;;9.52;;
62844;SDS011;48929;47.910;20.390;2023-04-06T10:22:32;15.88;;;9.10;;
62844;SDS011;48929;47.910;20.390;2023-04-06T10:25:07;16.15;;;9.07;;
62844;SDS011;48929;47.910;20.390;2023-04-06T10:27:36;15.63;;;9.60;;
62844;SDS011;48929;47.910;20.390;2023-04-06T10:30:06;17.17;;;10.15;;
62844;SDS011;48929;47.910;20.390;2023-04-06T10:32:39;19.15;;;9.73;;
62844;SDS011;48929;47.910;20.390;2023-04-06T10:35:11;16.75;;;9.90;;
62844;SDS011;48929;47.910;20.390;2023-04-06T10:37:50;18.52;;;10.05;;
62844;SDS011;48929;47.910;20.390;2023-04-06T10:40:21;18.17;;;9.63;;
62844;SDS011;48929;47.910;20.390;2023-04-06T10:42:55;17.40;;;9.18;;
62844;SDS011;48929;47.910;20.390;2023-04-06T10:45:25;19.73;;;10.35;;
62844;SDS011;48929;47.910;20.390;2023-04-06T10:47:56;17.77;;;10.40;;
62844;SDS011;48929;47.910;20.390;2023-04-06T10:50:25;22.95;;;11.93;;
62844;SDS011;48929;47.910;20.390;2023-04-06T10:53:00;18.40;;;10.70;;
62844;SDS011;48929;47.910;20.390;2023-04-06T10:55:30;15.88;;;9.98;;
62844;SDS011;48929;47.910;20.390;2023-04-06T10:57:59;16.33;;;10.15;;
62844;SDS011;48929;47.910;20.390;2023-04-06T11:00:30;17.83;;;10.45;;
62844;SDS011;48929;47.910;20.390;2023-04-06T11:03:17;19.63;;;11.15;;
62844;SDS011;48929;47.910;20.390;2023-04-06T11:05:47;17.15;;;9.48;;
62844;SDS011;48929;47.910;20.390;2023-04-06T11:08:24;16.38;;;9.65;;
62844;SDS011;48929;47.910;20.390;2023-04-06T11:11:04;14.43;;;9.13;;
62844;SDS011;48929;47.910;20.390;2023-04-06T11:13:38;14.70;;;8.40;;
62844;SDS011;48929;47.910;20.390;2023-04-06T11:16:12;15.52;;;9.80;;
62844;SDS011;48929;47.910;20.390;2023-04-06T11:18:56;17.83;;;10.77;;
62844;SDS011;48929;47.910;20.390;2023-04-06T11:21:33;18.80;;;10.45;;
62844;SDS011;48929;47.910;20.390;2023-04-06T11:24:04;19.65;;;11.95;;
62844;SDS011;48929;47.910;20.390;2023-04-06T11:26:37;17.50;;;10.27;;
62844;SDS011;48929;47.910;20.390;2023-04-06T11:29:09;16.88;;;11.93;;
62844;SDS011;48929;47.910;20.390;2023-04-06T11:31:41;19.05;;;13.00;;
62844;SDS011;48929;47.910;20.390;2023-04-06T11:34:13;16.58;;;10.25;;
62844;SDS011;48929;47.910;20.390;2023-04-06T11:36:48;20.60;;;11.65;;
62844;SDS011;48929;47.910;20.390;2023-04-06T11:39:24;19.27;;;11.35;;
62844;SDS011;48929;47.910;20.390;2023-04-06T11:41:55;17.67;;;10.23;;
62844;SDS011;48929;47.910;20.390;2023-04-06T11:44:33;17.23;;;10.20;;
62844;SDS011;48929;47.910;20.390;2023-04-06T11:47:03;17.05;;;10.98;;
62844;SDS011;48929;47.910;20.390;2023-04-06T11:49:38;16.25;;;10.35;;
62844;SDS011;48929;47.910;20.390;2023-04-06T11:52:14;17.48;;;11.40;;
62844;SDS011;48929;47.910;20.390;2023-04-06T11:54:44;19.75;;;12.63;;
62844;SDS011;48929;47.910;20.390;2023-04-06T11:57:16;21.50;;;13.10;;
62844;SDS011;48929;47.910;20.390;2023-04-06T11:59:46;18.65;;;11.65;;
62844;SDS011;48929;47.910;20.390;2023-04-06T12:02:14;17.98;;;10.50;;
62844;SDS011;48929;47.910;20.390;2023-04-06T12:04:48;17.65;;;10.23;;
62844;SDS011;48929;47.910;20.390;2023-04-06T12:07:18;17.38;;;9.85;;
62844;SDS011;48929;47.910;20.390;2023-04-06T12:09:47;17.85;;;11.20;;
62844;SDS011;48929;47.910;20.390;2023-04-06T12:12:16;18.92;;;12.75;;
62844;SDS011;48929;47.910;20.390;2023-04-06T12:14:45;15.23;;;9.85;;
62844;SDS011;48929;47.910;20.390;2023-04-06T12:17:14;19.20;;;10.73;;
62844;SDS011;48929;47.910;20.390;2023-04-06T12:19:43;19.30;;;12.10;;
62844;SDS011;48929;47.910;20.390;2023-04-06T12:22:13;15.52;;;10.15;;
62844;SDS011;48929;47.910;20.390;2023-04-06T12:24:42;19.05;;;11.30;;
62844;SDS011;48929;47.910;20.390;2023-04-06T12:27:13;14.60;;;9.13;;
62844;SDS011;48929;47.910;20.390;2023-04-06T12:29:41;18.13;;;11.57;;
62844;SDS011;48929;47.910;20.390;2023-04-06T12:32:11;19.92;;;12.32;;
62844;SDS011;48929;47.910;20.390;2023-04-06T12:34:40;17.95;;;10.98;;
62844;SDS011;48929;47.910;20.390;2023-04-06T12:37:13;17.65;;;12.00;;
62844;SDS011;48929;47.910;20.390;2023-04-06T12:39:44;17.25;;;10.52;;
62844;SDS011;48929;47.910;20.390;2023-04-06T12:42:14;15.45;;;11.60;;
62844;SDS011;48929;47.910;20.390;2023-04-06T12:44:43;17.58;;;9.85;;
62844;SDS011;48929;47.910;20.390;2023-04-06T12:47:14;22.17;;;13.48;;
62844;SDS011;48929;47.910;20.390;2023-04-06T12:49:46;13.43;;;8.63;;
62844;SDS011;48929;47.910;20.390;2023-04-06T12:52:17;18.50;;;10.80;;
62844;SDS011;48929;47.910;20.390;2023-04-06T12:54:47;20.65;;;10.98;;
62844;SDS011;48929;47.910;20.390;2023-04-06T12:57:17;18.85;;;10.73;;
62844;SDS011;48929;47.910;20.390;2023-04-06T12:59:48;18.35;;;11.52;;
62844;SDS011;48929;47.910;20.390;2023-04-06T13:02:18;20.20;;;9.65;;
62844;SDS011;48929;47.910;20.390;2023-04-06T13:04:51;21.30;;;10.80;;
62844;SDS011;48929;47.910;20.390;2023-04-06T13:07:22;16.92;;;10.55;;
62844;SDS011;48929;47.910;20.390;2023-04-06T13:09:51;23.60;;;12.80;;
62844;SDS011;48929;47.910;20.390;2023-04-06T13:12:24;24.60;;;11.32;;
62844;SDS011;48929;47.910;20.390;2023-04-06T13:14:55;24.00;;;13.02;;
62844;SDS011;48929;47.910;20.390;2023-04-06T13:17:26;19.85;;;12.65;;
62844;SDS011;48929;47.910;20.390;2023-04-06T13:19:55;19.13;;;11.57;;
62844;SDS011;48929;47.910;20.390;2023-04-06T13:22:25;22.13;;;13.05;;
62844;SDS011;48929;47.910;20.390;2023-04-06T13:24:54;19.20;;;11.27;;
62844;SDS011;48929;47.910;20.390;2023-04-06T13:27:23;20.38;;;11.70;;
62844;SDS011;48929;47.910;20.390;2023-04-06T13:29:55;22.88;;;13.20;;
62844;SDS011;48929;47.910;20.390;2023-04-06T13:32:24;17.67;;;10.75;;
62844;SDS011;48929;47.910;20.390;2023-04-06T13:34:54;23.38;;;13.25;;
62844;SDS011;48929;47.910;20.390;2023-04-06T13:37:23;20.83;;;11.85;;
62844;SDS011;48929;47.910;20.390;2023-04-06T13:39:54;18.60;;;11.05;;
62844;SDS011;48929;47.910;20.390;2023-04-06T13:42:23;19.80;;;11.82;;
62844;SDS011;48929;47.910;20.390;2023-04-06T13:44:51;19.83;;;12.27;;
62844;SDS011;48929;47.910;20.390;2023-04-06T13:47:20;19.85;;;11.82;;
62844;SDS011;48929;47.910;20.390;2023-04-06T13:49:50;22.45;;;13.15;;
62844;SDS011;48929;47.910;20.390;2023-04-06T13:52:19;23.08;;;12.35;;
62844;SDS011;48929;47.910;20.390;2023-04-06T13:54:48;21.08;;;12.02;;
62844;SDS011;48929;47.910;20.390;2023-04-06T13:57:19;21.67;;;12.77;;
62844;SDS011;48929;47.910;20.390;2023-04-06T13:59:48;22.10;;;12.73;;
62844;SDS011;48929;47.910;20.390;2023-04-06T14:02:20;20.98;;;13.38;;
62844;SDS011;48929;47.910;20.390;2023-04-06T14:04:54;20.67;;;13.88;;
62844;SDS011;48929;47.910;20.390;2023-04-06T14:07:23;19.67;;;11.48;;
62844;SDS011;48929;47.910;20.390;2023-04-06T14:09:51;22.40;;;11.98;;
62844;SDS011;48929;47.910;20.390;2023-04-06T14:12:23;19.13;;;11.48;;
62844;SDS011;48929;47.910;20.390;2023-04-06T14:14:53;21.60;;;11.63;;
62844;SDS011;48929;47.910;20.390;2023-04-06T14:17:22;20.35;;;12.43;;
62844;SDS011;48929;47.910;20.390;2023-04-06T14:19:52;22.10;;;12.90;;
62844;SDS011;48929;47.910;20.390;2023-04-06T14:22:20;20.17;;;11.82;;
62844;SDS011;48929;47.910;20.390;2023-04-06T14:24:49;20.50;;;12.70;;
62844;SDS011;48929;47.910;20.390;2023-04-06T14:27:18;19.67;;;11.70;;
62844;SDS011;48929;47.910;20.390;2023-04-06T14:29:48;24.38;;;13.32;;
62844;SDS011;48929;47.910;20.390;2023-04-06T14:32:17;21.42;;;12.93;;
62844;SDS011;48929;47.910;20.390;2023-04-06T14:34:46;23.75;;;12.90;;
62844;SDS011;48929;47.910;20.390;2023-04-06T14:37:15;23.25;;;12.95;;
62844;SDS011;48929;47.910;20.390;2023-04-06T14:39:44;26.58;;;12.95;;